Time;durP1;ratioP1;P1;durP2;ratioP2;P2;SDS_P1;SDS_P2;PMS_P1;PMS_P2;Temp;Humidity;BMP_temperature;BMP_pressure;BME280_temperature;BME280_humidity;BME280_pressure;Samples;Min_cycle;Max_cycle;Signal;HPM_P1;HPM_P2
2022/08/12 00:44:09;;;;;;;;;;;23.90;39.90;;;;;;5088780;28;19927;-68
2022/08/12 00:46:41;;;;;;;;;;;23.80;40.00;;;;;;5085898;28;19931;-68
2022/08/12 00:49:07;;;;;;;;;;;23.80;40.00;;;;;;5083074;28;20293;-69
2022/08/12 00:54:15;;;;;;;;;;;23.70;40.30;;;;;;5076213;28;20452;-69
2022/08/12 00:56:42;;;;;;;;;;;23.70;40.10;;;;;;5082760;28;19936;-71
2022/08/12 00:59:09;;;;;;;;;;;23.70;40.20;;;;;;5089320;28;19920;-68
2022/08/12 01:01:37;;;;;;;;;;;23.60;40.40;;;;;;5082393;28;19929;-68
2022/08/12 01:12:35;;;;;;;;;;;23.50;41.00;;;;;;5012071;28;20118;-68
2022/08/12 01:15:02;;;;;;;;;;;23.50;41.10;;;;;;5067455;28;19928;-68
2022/08/12 01:17:31;;;;;;;;;;;23.40;41.20;;;;;;5087938;28;20030;-68
2022/08/12 01:19:59;;;;;;;;;;;23.40;41.30;;;;;;5086042;28;20388;-70
2022/08/12 01:22:29;;;;;;;;;;;23.40;41.30;;;;;;5080570;28;19931;-67
2022/08/12 01:25:00;;;;;;;;;;;23.30;41.40;;;;;;5079553;28;19977;-68
2022/08/12 01:27:27;;;;;;;;;;;23.30;41.60;;;;;;5081737;28;19932;-68
2022/08/12 01:29:54;;;;;;;;;;;23.30;41.80;;;;;;5084206;28;20460;-68
2022/08/12 01:32:22;;;;;;;;;;;23.30;41.80;;;;;;5076784;28;19928;-68
2022/08/12 01:34:54;;;;;;;;;;;23.20;41.80;;;;;;5082073;28;19982;-68
2022/08/12 01:37:24;;;;;;;;;;;23.20;41.90;;;;;;5085979;28;20427;-70
2022/08/12 01:39:52;;;;;;;;;;;23.20;42.00;;;;;;5081995;28;19932;-71
2022/08/12 01:42:21;;;;;;;;;;;23.10;41.70;;;;;;5087847;28;20477;-68
2022/08/12 01:44:48;;;;;;;;;;;23.10;42.00;;;;;;5088175;28;19939;-69
2022/08/12 01:47:21;;;;;;;;;;;23.00;42.60;;;;;;5084726;28;19931;-71
2022/08/12 01:49:53;;;;;;;;;;;23.00;42.20;;;;;;5083752;28;19936;-69
2022/08/12 01:52:26;;;;;;;;;;;23.00;42.20;;;;;;5088577;28;20025;-69
2022/08/12 01:54:53;;;;;;;;;;;23.00;42.20;;;;;;5074164;28;20536;-69
2022/08/12 01:57:24;;;;;;;;;;;22.90;42.40;;;;;;5087878;28;20449;-71
2022/08/12 01:59:58;;;;;;;;;;;22.90;42.40;;;;;;5077886;28;20006;-68
2022/08/12 02:02:27;;;;;;;;;;;22.90;42.60;;;;;;5075388;28;19925;-68
2022/08/12 02:13:34;;;;;;;;;;;22.70;42.80;;;;;;5081089;28;19977;-69
2022/08/12 02:16:03;;;;;;;;;;;22.70;43.10;;;;;;5081293;28;19931;-69
2022/08/12 02:18:35;;;;;;;;;;;22.70;43.10;;;;;;5087551;28;19931;-69
2022/08/12 02:21:04;;;;;;;;;;;22.60;43.20;;;;;;5086799;28;20418;-69
2022/08/12 02:23:33;;;;;;;;;;;22.60;43.20;;;;;;5087883;28;19964;-69
2022/08/12 02:26:03;;;;;;;;;;;22.60;43.20;;;;;;5077274;28;19931;-70
2022/08/12 02:28:31;;;;;;;;;;;22.50;43.40;;;;;;5083301;28;19924;-70
2022/08/12 02:31:02;;;;;;;;;;;22.60;43.40;;;;;;5078437;28;19924;-69
2022/08/12 02:33:28;;;;;;;;;;;22.50;43.50;;;;;;5082151;28;19924;-69
2022/08/12 02:35:55;;;;;;;;;;;22.50;43.50;;;;;;5080199;28;19924;-69
2022/08/12 02:38:23;;;;;;;;;;;22.40;43.60;;;;;;5079923;28;19936;-68
2022/08/12 02:40:53;;;;;;;;;;;22.40;43.70;;;;;;5079478;28;19928;-68
2022/08/12 02:43:23;;;;;;;;;;;22.40;43.70;;;;;;5086739;28;20000;-69
2022/08/12 02:45:52;;;;;;;;;;;22.40;43.70;;;;;;5078686;28;20319;-69
2022/08/12 02:48:22;;;;;;;;;;;22.30;43.80;;;;;;5074409;28;20635;-69
2022/08/12 02:50:51;;;;;;;;;;;22.30;43.90;;;;;;5079400;28;19935;-68
2022/08/12 02:53:18;;;;;;;;;;;22.30;43.80;;;;;;5082502;28;19931;-69
2022/08/12 02:55:45;;;;;;;;;;;22.20;43.80;;;;;;5077712;28;19932;-70
2022/08/12 02:58:13;;;;;;;;;;;22.20;44.00;;;;;;5076281;28;19928;-69
2022/08/12 03:00:40;;;;;;;;;;;22.20;43.90;;;;;;5082810;28;19981;-69
2022/08/12 03:03:09;;;;;;;;;;;22.20;44.10;;;;;;5078478;28;19928;-69
2022/08/12 03:05:38;;;;;;;;;;;22.10;44.10;;;;;;5079996;28;19932;-69
2022/08/12 03:08:04;;;;;;;;;;;22.10;44.20;;;;;;5078152;28;20815;-68
2022/08/12 03:10:34;;;;;;;;;;;22.10;44.20;;;;;;5085306;28;19932;-68
2022/08/12 03:13:02;;;;;;;;;;;22.00;44.30;;;;;;5079392;28;19924;-71
2022/08/12 03:15:30;;;;;;;;;;;22.00;44.40;;;;;;5078182;28;19931;-69
2022/08/12 03:18:00;;;;;;;;;;;22.00;44.50;;;;;;5082215;28;20011;-71
2022/08/12 03:20:28;;;;;;;;;;;22.00;44.50;;;;;;5077493;28;20373;-70
2022/08/12 03:22:54;;;;;;;;;;;21.90;44.30;;;;;;5081186;28;20422;-69
2022/08/12 03:25:23;;;;;;;;;;;21.90;44.60;;;;;;5078988;28;19928;-70
2022/08/12 03:27:54;;;;;;;;;;;21.80;44.50;;;;;;5085716;28;20025;-69
2022/08/12 03:30:22;;;;;;;;;;;21.80;44.50;;;;;;5082366;28;19928;-70
2022/08/12 03:32:49;;;;;;;;;;;21.80;44.60;;;;;;5078809;28;19928;-68
2022/08/12 03:35:17;;;;;;;;;;;21.80;44.60;;;;;;5083916;28;19924;-68
2022/08/12 03:37:46;;;;;;;;;;;21.70;44.70;;;;;;5079125;28;21956;-70
2022/08/12 03:41:32;;;;;;;;;;;21.70;44.80;;;;;;5073660;28;19928;-70
2022/08/12 04:02:15;;;;;;;;;;;21.50;45.00;;;;;;5073502;28;19985;-70
2022/08/12 04:04:44;;;;;;;;;;;21.50;45.10;;;;;;5081430;28;19925;-70
2022/08/12 04:07:11;;;;;;;;;;;21.50;45.30;;;;;;5076702;28;20027;-68
2022/08/12 04:09:40;;;;;;;;;;;21.40;45.20;;;;;;5085537;28;19924;-69
2022/08/12 04:14:52;;;;;;;;;;;21.40;45.10;;;;;;5079054;28;20016;-69
2022/08/12 04:17:19;;;;;;;;;;;21.40;45.10;;;;;;5084684;28;20725;-68
2022/08/12 04:19:46;;;;;;;;;;;21.30;45.30;;;;;;5081059;28;20391;-71
2022/08/12 04:22:13;;;;;;;;;;;21.30;45.40;;;;;;5086362;28;19971;-69
2022/08/12 04:24:41;;;;;;;;;;;21.30;45.40;;;;;;5082746;28;19931;-69
2022/08/12 04:27:09;;;;;;;;;;;21.30;45.40;;;;;;5084086;28;19978;-68
2022/08/12 04:29:36;;;;;;;;;;;21.30;45.40;;;;;;5084135;28;19951;-67
2022/08/12 04:32:05;;;;;;;;;;;21.20;45.40;;;;;;5083115;28;20014;-69
2022/08/12 04:34:32;;;;;;;;;;;21.20;45.60;;;;;;5086746;28;20019;-68
2022/08/12 04:36:58;;;;;;;;;;;21.20;45.60;;;;;;5088532;28;19924;-68
2022/08/12 04:39:26;;;;;;;;;;;21.20;45.60;;;;;;5077377;28;19928;-67
2022/08/12 04:41:54;;;;;;;;;;;21.20;45.60;;;;;;5080373;28;20232;-69
2022/08/12 04:44:20;;;;;;;;;;;21.10;45.60;;;;;;5088879;28;19961;-69
2022/08/12 04:46:47;;;;;;;;;;;21.10;45.60;;;;;;5077506;28;20015;-69
2022/08/12 04:49:13;;;;;;;;;;;21.10;45.90;;;;;;5078241;28;20557;-69
2022/08/12 04:51:40;;;;;;;;;;;21.10;46.00;;;;;;5088133;28;19928;-70
2022/08/12 04:54:06;;;;;;;;;;;21.00;45.90;;;;;;5077225;28;19924;-69
2022/08/12 04:56:34;;;;;;;;;;;21.00;46.00;;;;;;5088260;28;19932;-69
2022/08/12 04:59:02;;;;;;;;;;;21.00;46.20;;;;;;5089352;28;19924;-72
2022/08/12 05:01:31;;;;;;;;;;;21.00;46.20;;;;;;5086323;28;19928;-67
2022/08/12 05:03:58;;;;;;;;;;;21.00;46.10;;;;;;5085056;28;19923;-69
2022/08/12 05:06:25;;;;;;;;;;;21.00;46.20;;;;;;5089437;28;19931;-68
2022/08/12 05:08:53;;;;;;;;;;;20.90;46.20;;;;;;5087264;28;20320;-68
2022/08/12 05:11:21;;;;;;;;;;;20.90;46.30;;;;;;5081246;28;19936;-68
2022/08/12 05:13:50;;;;;;;;;;;20.80;46.30;;;;;;5088481;28;19967;-68
2022/08/12 05:16:17;;;;;;;;;;;20.90;46.30;;;;;;5089075;28;20011;-70
2022/08/12 05:18:44;;;;;;;;;;;20.90;46.40;;;;;;5081636;28;19932;-69
2022/08/12 05:21:11;;;;;;;;;;;20.90;46.50;;;;;;5085894;28;20387;-69
2022/08/12 05:23:38;;;;;;;;;;;20.80;46.50;;;;;;5081879;28;20334;-68
2022/08/12 05:26:05;;;;;;;;;;;20.80;46.20;;;;;;5082851;28;19935;-69
2022/08/12 05:28:32;;;;;;;;;;;20.80;46.60;;;;;;5081860;28;19928;-69
2022/08/12 05:31:00;;;;;;;;;;;20.80;46.60;;;;;;5085837;28;19931;-70
2022/08/12 05:33:31;;;;;;;;;;;20.80;46.70;;;;;;5079190;28;19928;-69
2022/08/12 05:35:58;;;;;;;;;;;20.70;46.80;;;;;;5081686;28;19924;-68
2022/08/12 05:41:17;;;;;;;;;;;20.70;46.70;;;;;;5082030;28;19931;-69
2022/08/12 05:43:45;;;;;;;;;;;20.70;46.70;;;;;;5087977;28;20547;-69
2022/08/12 05:46:11;;;;;;;;;;;20.70;46.50;;;;;;5088560;28;19947;-68
2022/08/12 05:48:40;;;;;;;;;;;20.70;46.70;;;;;;5086980;28;20618;-69
2022/08/12 05:51:07;;;;;;;;;;;20.70;46.80;;;;;;5082471;28;19942;-69
2022/08/12 05:53:33;;;;;;;;;;;20.60;46.70;;;;;;5088272;28;19935;-70
2022/08/12 05:56:00;;;;;;;;;;;20.60;46.70;;;;;;5082092;28;19924;-72
2022/08/12 05:58:27;;;;;;;;;;;20.70;46.70;;;;;;5087844;28;19943;-69
2022/08/12 06:00:55;;;;;;;;;;;20.60;46.70;;;;;;5087608;28;19928;-68
2022/08/12 06:03:24;;;;;;;;;;;20.60;46.70;;;;;;5081102;28;20454;-69
2022/08/12 06:05:52;;;;;;;;;;;20.60;46.80;;;;;;5084226;28;19944;-69
2022/08/12 06:08:18;;;;;;;;;;;20.60;46.70;;;;;;5088260;28;19924;-68
2022/08/12 06:10:45;;;;;;;;;;;20.60;46.70;;;;;;5080302;28;19920;-69
2022/08/12 06:13:14;;;;;;;;;;;20.60;46.80;;;;;;5083343;28;19963;-69
2022/08/12 06:15:40;;;;;;;;;;;20.60;46.70;;;;;;5087535;28;19972;-70
2022/08/12 06:18:08;;;;;;;;;;;20.60;47.00;;;;;;5087679;28;19934;-69
2022/08/12 06:20:34;;;;;;;;;;;20.60;46.90;;;;;;5085287;28;19928;-69
2022/08/12 06:23:03;;;;;;;;;;;20.60;46.80;;;;;;5088211;28;19928;-71
2022/08/12 06:25:29;;;;;;;;;;;20.60;46.70;;;;;;5080494;28;19932;-70
2022/08/12 06:27:57;;;;;;;;;;;20.60;46.80;;;;;;5082499;28;19924;-69
2022/08/12 06:30:24;;;;;;;;;;;20.60;47.00;;;;;;5082702;28;19950;-71
2022/08/12 06:32:51;;;;;;;;;;;20.60;47.00;;;;;;5086951;28;20292;-69
2022/08/12 06:35:18;;;;;;;;;;;20.60;46.90;;;;;;5083833;28;19970;-69
2022/08/12 06:37:47;;;;;;;;;;;20.60;46.70;;;;;;5085501;28;19932;-69
2022/08/12 06:42:46;;;;;;;;;;;20.60;46.90;;;;;;5068869;28;20338;-69
2022/08/12 06:43:01;;;;;;;;;;;20.60;46.90;;;;;;5085167;28;20472;-72
2022/08/12 06:45:27;;;;;;;;;;;20.60;47.20;;;;;;5086390;28;19920;-69
2022/08/12 06:47:55;;;;;;;;;;;20.60;47.00;;;;;;5084098;28;19928;-69
2022/08/12 06:50:21;;;;;;;;;;;20.60;46.90;;;;;;5083696;28;19924;-69
2022/08/12 06:52:49;;;;;;;;;;;20.60;46.80;;;;;;5086618;28;19924;-69
2022/08/12 06:55:19;;;;;;;;;;;20.60;46.90;;;;;;5080998;28;20026;-70
2022/08/12 06:57:53;;;;;;;;;;;20.60;46.80;;;;;;5079379;28;19932;-68
2022/08/12 07:00:22;;;;;;;;;;;20.70;46.80;;;;;;5079597;28;19931;-69
2022/08/12 07:02:49;;;;;;;;;;;20.70;46.60;;;;;;5086556;28;19967;-69
2022/08/12 07:05:15;;;;;;;;;;;20.70;46.70;;;;;;5081131;28;20733;-69
2022/08/12 07:07:45;;;;;;;;;;;20.70;46.60;;;;;;5084888;28;20080;-71
2022/08/12 07:10:11;;;;;;;;;;;20.70;46.70;;;;;;5086512;28;19928;-69
2022/08/12 07:12:39;;;;;;;;;;;20.70;46.90;;;;;;5082930;28;19931;-69
2022/08/12 07:15:06;;;;;;;;;;;20.80;46.60;;;;;;5079458;28;19924;-68
2022/08/12 07:17:35;;;;;;;;;;;20.80;46.60;;;;;;5078781;28;19928;-70
2022/08/12 07:20:02;;;;;;;;;;;20.80;46.50;;;;;;5085880;28;20451;-69
2022/08/12 07:22:29;;;;;;;;;;;20.80;46.60;;;;;;5072990;28;19931;-71
2022/08/12 07:27:37;;;;;;;;;;;20.80;46.60;;;;;;5075468;28;20035;-70
2022/08/12 07:30:08;;;;;;;;;;;20.90;46.60;;;;;;5077689;28;19928;-69
2022/08/12 07:32:35;;;;;;;;;;;20.90;46.50;;;;;;5084069;28;19928;-68
2022/08/12 07:35:02;;;;;;;;;;;21.00;46.60;;;;;;5082630;28;19933;-71
2022/08/12 07:37:29;;;;;;;;;;;21.00;46.50;;;;;;5084087;28;20011;-69
2022/08/12 07:39:57;;;;;;;;;;;21.00;46.40;;;;;;5075032;28;19924;-71
2022/08/12 07:42:23;;;;;;;;;;;21.00;46.50;;;;;;5086301;28;20418;-69
2022/08/12 07:44:50;;;;;;;;;;;21.10;46.50;;;;;;5078552;28;20227;-69
2022/08/12 07:47:18;;;;;;;;;;;21.10;46.30;;;;;;5084861;28;20003;-72
2022/08/12 07:49:44;;;;;;;;;;;21.10;46.20;;;;;;5083183;28;19932;-70
2022/08/12 07:52:11;;;;;;;;;;;21.10;46.30;;;;;;5080975;28;19928;-70
2022/08/12 07:54:39;;;;;;;;;;;21.20;46.30;;;;;;5078028;28;19936;-70
2022/08/12 07:57:10;;;;;;;;;;;21.20;46.20;;;;;;5087644;28;20710;-69
2022/08/12 07:59:37;;;;;;;;;;;21.20;46.20;;;;;;5079692;28;20300;-69
2022/08/12 08:02:03;;;;;;;;;;;21.30;46.10;;;;;;5084218;28;19924;-69
2022/08/12 08:07:15;;;;;;;;;;;21.40;46.10;;;;;;5089100;28;19930;-69
2022/08/12 08:09:42;;;;;;;;;;;21.40;46.00;;;;;;5082273;28;19935;-70
2022/08/12 08:14:54;;;;;;;;;;;21.40;45.90;;;;;;5075366;28;20292;-70
2022/08/12 08:17:21;;;;;;;;;;;21.50;45.90;;;;;;5082440;28;19936;-69
2022/08/12 08:19:51;;;;;;;;;;;21.50;45.90;;;;;;5089446;28;19932;-69
2022/08/12 08:22:18;;;;;;;;;;;21.50;45.80;;;;;;5074690;28;19928;-69
2022/08/12 08:24:45;;;;;;;;;;;21.60;45.80;;;;;;5080144;28;19976;-70
2022/08/12 08:27:12;;;;;;;;;;;21.60;45.80;;;;;;5083433;28;19924;-70
2022/08/12 08:29:39;;;;;;;;;;;21.70;45.70;;;;;;5085825;28;19977;-68
2022/08/12 08:32:08;;;;;;;;;;;21.70;45.60;;;;;;5081038;28;20206;-69
2022/08/12 08:34:35;;;;;;;;;;;21.70;45.40;;;;;;5085001;28;19934;-69
2022/08/12 08:37:03;;;;;;;;;;;21.80;45.50;;;;;;5080360;28;19931;-68
2022/08/12 08:39:30;;;;;;;;;;;21.80;45.50;;;;;;5076508;28;19935;-69
2022/08/12 08:44:42;;;;;;;;;;;21.90;45.40;;;;;;5081348;28;19943;-69
2022/08/12 08:47:09;;;;;;;;;;;22.00;45.40;;;;;;5084220;28;19953;-70
2022/08/12 08:49:37;;;;;;;;;;;22.00;45.30;;;;;;5077624;28;19935;-69
2022/08/12 08:52:05;;;;;;;;;;;22.10;45.10;;;;;;5083448;28;19931;-69
2022/08/12 08:54:33;;;;;;;;;;;22.10;45.20;;;;;;5080810;28;20396;-69
2022/08/12 08:57:00;;;;;;;;;;;22.20;45.60;;;;;;5082399;28;19935;-70
2022/08/12 08:59:27;;;;;;;;;;;22.20;45.30;;;;;;5080566;28;19928;-69
2022/08/12 09:01:54;;;;;;;;;;;22.30;44.90;;;;;;5082563;28;19936;-69
2022/08/12 09:04:22;;;;;;;;;;;22.30;44.70;;;;;;5087292;28;19932;-70
2022/08/12 09:06:57;;;;;;;;;;;22.40;44.70;;;;;;5084797;28;19928;-68
2022/08/12 09:09:25;;;;;;;;;;;22.40;44.60;;;;;;5086318;28;20303;-70
2022/08/12 09:14:36;;;;;;;;;;;22.50;44.50;;;;;;5086212;28;19927;-69
2022/08/12 09:17:04;;;;;;;;;;;22.60;44.10;;;;;;5085526;28;19931;-69
2022/08/12 09:19:30;;;;;;;;;;;22.70;44.00;;;;;;5083924;28;20007;-71
2022/08/12 09:21:58;;;;;;;;;;;22.80;44.00;;;;;;5084244;28;20003;-69
2022/08/12 09:24:26;;;;;;;;;;;22.80;43.70;;;;;;5076958;28;20012;-71
2022/08/12 09:26:52;;;;;;;;;;;22.90;44.20;;;;;;5077689;28;19931;-70
2022/08/12 09:29:20;;;;;;;;;;;23.00;43.60;;;;;;5084177;28;19928;-70
2022/08/12 09:31:46;;;;;;;;;;;23.00;43.20;;;;;;5084868;28;19954;-70
2022/08/12 09:34:13;;;;;;;;;;;23.10;43.20;;;;;;5085385;28;19989;-70
2022/08/12 09:36:41;;;;;;;;;;;23.10;42.90;;;;;;5081094;28;20021;-69
2022/08/12 09:39:07;;;;;;;;;;;23.30;42.70;;;;;;5079780;28;19929;-71
2022/08/12 09:41:39;;;;;;;;;;;23.30;42.70;;;;;;5076216;28;19933;-69
2022/08/12 09:46:50;;;;;;;;;;;23.40;42.70;;;;;;5077849;28;19989;-69
2022/08/12 09:49:16;;;;;;;;;;;23.50;42.10;;;;;;5081696;28;20395;-71
2022/08/12 09:51:46;;;;;;;;;;;23.60;42.00;;;;;;5081851;28;19931;-69
2022/08/12 09:54:16;;;;;;;;;;;23.70;42.10;;;;;;5076493;28;19931;-69
2022/08/12 09:56:44;;;;;;;;;;;23.70;41.60;;;;;;5086209;28;20494;-69
2022/08/12 09:59:10;;;;;;;;;;;23.80;41.50;;;;;;5079123;28;19978;-70
2022/08/12 10:01:38;;;;;;;;;;;23.80;41.90;;;;;;5079613;28;19928;-69
2022/08/12 10:04:08;;;;;;;;;;;23.90;41.60;;;;;;5083810;28;20001;-69
2022/08/12 10:06:35;;;;;;;;;;;24.00;41.80;;;;;;5083555;28;20015;-69
2022/08/12 10:09:01;;;;;;;;;;;24.10;41.00;;;;;;5086511;28;19932;-71
2022/08/12 10:14:13;;;;;;;;;;;24.20;40.50;;;;;;5079369;28;20066;-70
2022/08/12 10:16:43;;;;;;;;;;;24.30;40.40;;;;;;5084393;28;19931;-71
2022/08/12 10:19:09;;;;;;;;;;;24.30;40.10;;;;;;5079990;28;19924;-70
2022/08/12 10:21:36;;;;;;;;;;;24.50;40.70;;;;;;5085113;28;19970;-71
2022/08/12 10:24:04;;;;;;;;;;;24.50;40.20;;;;;;5076244;28;19924;-68
2022/08/12 10:32:02;;;;;;;;;;;24.70;39.50;;;;;;5080682;28;20402;-69
2022/08/12 10:34:28;;;;;;;;;;;24.80;39.20;;;;;;5084157;28;20370;-69
2022/08/12 10:36:57;;;;;;;;;;;24.90;38.90;;;;;;5076588;28;19932;-70
2022/08/12 10:39:25;;;;;;;;;;;24.90;38.70;;;;;;5075621;28;19928;-70
2022/08/12 10:44:51;;;;;;;;;;;25.10;38.60;;;;;;5009925;28;19952;-69
2022/08/12 10:47:20;;;;;;;;;;;25.10;38.60;;;;;;5020363;28;19925;-70
2022/08/12 10:49:48;;;;;;;;;;;25.20;38.20;;;;;;5041505;28;21283;-69
2022/08/12 10:52:15;;;;;;;;;;;25.30;38.10;;;;;;5081878;28;19977;-70
2022/08/12 10:54:42;;;;;;;;;;;25.40;38.00;;;;;;5076170;28;19931;-70
2022/08/12 10:57:09;;;;;;;;;;;25.40;37.90;;;;;;5080403;28;19930;-70
2022/08/12 10:59:35;;;;;;;;;;;25.50;37.70;;;;;;5083931;28;19935;-70
2022/08/12 11:02:03;;;;;;;;;;;25.60;38.00;;;;;;5080765;28;19932;-70
2022/08/12 11:04:30;;;;;;;;;;;25.60;37.90;;;;;;5074158;28;19927;-71
2022/08/12 11:06:57;;;;;;;;;;;25.70;37.90;;;;;;5077139;28;20040;-70
2022/08/12 11:09:26;;;;;;;;;;;25.80;38.00;;;;;;5077500;28;19920;-70
2022/08/12 11:11:54;;;;;;;;;;;25.80;38.50;;;;;;5075811;28;19953;-69
2022/08/12 11:14:27;;;;;;;;;;;25.90;37.90;;;;;;5076199;28;20303;-71
2022/08/12 11:16:55;;;;;;;;;;;26.00;37.80;;;;;;5077858;28;20020;-71
2022/08/12 11:19:24;;;;;;;;;;;26.00;37.60;;;;;;5082579;28;20399;-69
2022/08/12 11:21:51;;;;;;;;;;;26.10;37.40;;;;;;5080694;28;20540;-69
2022/08/12 11:24:18;;;;;;;;;;;26.20;37.40;;;;;;5074668;28;20113;-72
2022/08/12 11:26:44;;;;;;;;;;;26.20;36.50;;;;;;5078884;28;19928;-70
2022/08/12 11:29:11;;;;;;;;;;;26.20;37.00;;;;;;5078859;28;19932;-70
2022/08/12 11:31:37;;;;;;;;;;;26.30;37.20;;;;;;5089205;28;19932;-70
2022/08/12 11:34:04;;;;;;;;;;;26.30;37.10;;;;;;5086609;28;20666;-69
2022/08/12 11:36:32;;;;;;;;;;;26.40;37.00;;;;;;5090431;28;19932;-72
2022/08/12 11:38:58;;;;;;;;;;;26.50;36.30;;;;;;5088322;28;20546;-70
2022/08/12 11:41:25;;;;;;;;;;;26.60;36.40;;;;;;5078365;28;19932;-69
2022/08/12 11:43:51;;;;;;;;;;;26.60;35.70;;;;;;5090594;28;19924;-70
2022/08/12 11:46:18;;;;;;;;;;;26.60;36.70;;;;;;5085560;28;19928;-69
2022/08/12 11:48:44;;;;;;;;;;;26.70;37.00;;;;;;5080866;28;19948;-71
2022/08/12 11:51:11;;;;;;;;;;;26.80;36.00;;;;;;5085645;28;19947;-70
2022/08/12 11:53:39;;;;;;;;;;;26.90;35.80;;;;;;5089782;28;19924;-70
2022/08/12 11:56:06;;;;;;;;;;;26.90;35.40;;;;;;5086181;28;20339;-70
2022/08/12 11:58:33;;;;;;;;;;;27.00;35.20;;;;;;5087050;28;20380;-69
2022/08/12 12:01:00;;;;;;;;;;;27.00;35.40;;;;;;5086652;28;19942;-70
2022/08/12 12:03:26;;;;;;;;;;;27.10;35.30;;;;;;5085803;28;19974;-71
2022/08/12 12:05:53;;;;;;;;;;;27.20;35.10;;;;;;5086164;28;19944;-70
2022/08/12 12:08:20;;;;;;;;;;;27.20;34.90;;;;;;5087498;28;19924;-70
2022/08/12 12:10:48;;;;;;;;;;;27.30;34.90;;;;;;5084714;28;21322;-71
2022/08/12 12:13:15;;;;;;;;;;;27.30;35.00;;;;;;5084840;28;19963;-71
2022/08/12 12:15:42;;;;;;;;;;;27.40;34.70;;;;;;5082720;28;20402;-70
2022/08/12 12:18:19;;;;;;;;;;;27.40;34.50;;;;;;5089918;28;19959;-71
2022/08/12 12:20:45;;;;;;;;;;;27.50;35.00;;;;;;5081964;28;19968;-70
2022/08/12 12:23:12;;;;;;;;;;;27.60;34.50;;;;;;5090364;28;20376;-70
2022/08/12 12:25:39;;;;;;;;;;;27.60;34.40;;;;;;5082323;28;19932;-70
2022/08/12 12:28:06;;;;;;;;;;;27.70;34.50;;;;;;5089861;28;19935;-71
2022/08/12 12:30:33;;;;;;;;;;;27.70;33.90;;;;;;5086799;28;19920;-69
2022/08/12 12:33:00;;;;;;;;;;;27.80;34.60;;;;;;5081124;28;19931;-72
2022/08/12 12:35:26;;;;;;;;;;;27.80;34.70;;;;;;5086502;28;19939;-70
2022/08/12 12:37:53;;;;;;;;;;;27.90;34.00;;;;;;5083212;28;20308;-70
2022/08/12 12:40:20;;;;;;;;;;;27.90;33.70;;;;;;5077567;28;19935;-70
2022/08/12 12:42:47;;;;;;;;;;;28.00;33.80;;;;;;5088170;28;19951;-73
2022/08/12 12:45:15;;;;;;;;;;;28.10;34.20;;;;;;5090112;28;19939;-70
2022/08/12 12:47:55;;;;;;;;;;;28.10;34.30;;;;;;5084825;28;20014;-70
2022/08/12 12:50:22;;;;;;;;;;;28.10;34.00;;;;;;5078561;28;19924;-70
2022/08/12 12:52:48;;;;;;;;;;;28.20;34.20;;;;;;5084236;28;19928;-69
2022/08/12 12:55:15;;;;;;;;;;;28.30;33.90;;;;;;5083092;28;19928;-69
2022/08/12 12:57:42;;;;;;;;;;;28.30;34.20;;;;;;5082980;28;19924;-70
2022/08/12 13:00:15;;;;;;;;;;;28.40;33.60;;;;;;5086155;28;19924;-70
2022/08/12 13:02:49;;;;;;;;;;;28.40;32.60;;;;;;5081140;28;19935;-70
2022/08/12 13:05:16;;;;;;;;;;;28.50;33.60;;;;;;5079840;28;20579;-73
2022/08/12 13:07:43;;;;;;;;;;;28.50;33.70;;;;;;5089129;28;19975;-70
2022/08/12 13:10:09;;;;;;;;;;;28.60;33.10;;;;;;5088284;28;19971;-70
2022/08/12 13:12:38;;;;;;;;;;;28.60;32.80;;;;;;5078156;28;19928;-70
2022/08/12 13:15:08;;;;;;;;;;;28.60;33.30;;;;;;5082047;28;19928;-68
2022/08/12 13:17:34;;;;;;;;;;;28.70;34.20;;;;;;5088737;28;19928;-71
2022/08/12 13:20:04;;;;;;;;;;;28.80;33.10;;;;;;5089056;28;19931;-73
2022/08/12 13:22:31;;;;;;;;;;;28.80;33.70;;;;;;5073639;28;19924;-71
2022/08/12 13:24:58;;;;;;;;;;;28.90;33.30;;;;;;5078975;28;19928;-73
2022/08/12 13:27:28;;;;;;;;;;;28.90;32.70;;;;;;5077097;28;19928;-70
2022/08/12 13:29:54;;;;;;;;;;;29.00;32.60;;;;;;5078567;28;19928;-70
2022/08/12 13:32:21;;;;;;;;;;;29.10;34.10;;;;;;5083361;28;19931;-70
2022/08/12 13:34:52;;;;;;;;;;;29.10;32.40;;;;;;5086377;28;19936;-70
2022/08/12 13:37:24;;;;;;;;;;;29.10;32.10;;;;;;5078313;28;19924;-70
2022/08/12 13:39:51;;;;;;;;;;;29.20;32.50;;;;;;5071587;28;20422;-70
2022/08/12 13:42:18;;;;;;;;;;;29.30;32.90;;;;;;5083297;28;19951;-71
2022/08/12 13:44:45;;;;;;;;;;;29.30;32.40;;;;;;5086346;28;19947;-72
2022/08/12 13:47:11;;;;;;;;;;;29.40;32.70;;;;;;5082789;28;19924;-71
2022/08/12 13:49:38;;;;;;;;;;;29.40;31.20;;;;;;5083495;28;19931;-70
2022/08/12 13:52:05;;;;;;;;;;;29.50;31.10;;;;;;5089049;28;19934;-71
2022/08/12 13:54:33;;;;;;;;;;;29.60;31.10;;;;;;5077489;28;19928;-71
2022/08/12 13:57:00;;;;;;;;;;;29.70;31.00;;;;;;5082019;28;19931;-71
2022/08/12 13:59:26;;;;;;;;;;;29.70;31.70;;;;;;5085468;28;19920;-70
2022/08/12 14:01:53;;;;;;;;;;;29.80;30.70;;;;;;5086443;28;19928;-70
2022/08/12 14:04:19;;;;;;;;;;;29.80;31.10;;;;;;5088516;28;19936;-71
2022/08/12 14:06:49;;;;;;;;;;;29.90;31.50;;;;;;5077200;28;19928;-70
2022/08/12 14:09:15;;;;;;;;;;;29.90;31.10;;;;;;5086838;28;19924;-71
2022/08/12 14:11:43;;;;;;;;;;;30.00;30.20;;;;;;5081799;28;19928;-70
2022/08/12 14:14:10;;;;;;;;;;;30.10;30.90;;;;;;5078999;28;20406;-72
2022/08/12 14:16:37;;;;;;;;;;;30.10;30.60;;;;;;5082572;28;19950;-70
2022/08/12 14:19:03;;;;;;;;;;;30.20;30.10;;;;;;5083759;28;20392;-70
2022/08/12 14:21:31;;;;;;;;;;;30.20;29.70;;;;;;5086612;28;19947;-73
2022/08/12 14:23:58;;;;;;;;;;;30.30;30.00;;;;;;5083118;28;20011;-69
2022/08/12 14:26:24;;;;;;;;;;;30.40;30.70;;;;;;5078558;28;19928;-71
2022/08/12 14:28:52;;;;;;;;;;;30.40;30.30;;;;;;5076235;28;20532;-72
2022/08/12 14:31:20;;;;;;;;;;;30.40;31.60;;;;;;5077542;28;20330;-73
2022/08/12 14:33:47;;;;;;;;;;;30.50;30.00;;;;;;5076843;28;20307;-72
2022/08/12 14:36:14;;;;;;;;;;;30.50;30.00;;;;;;5080540;28;19973;-71
2022/08/12 14:38:43;;;;;;;;;;;30.60;30.80;;;;;;5079764;28;19951;-71
2022/08/12 14:41:10;;;;;;;;;;;30.70;29.80;;;;;;5073325;28;19928;-70
2022/08/12 14:43:37;;;;;;;;;;;30.70;30.20;;;;;;5080328;28;19936;-70
2022/08/12 14:46:06;;;;;;;;;;;30.70;30.20;;;;;;5084286;28;19924;-72
2022/08/12 14:48:33;;;;;;;;;;;30.80;29.60;;;;;;5081791;28;19921;-71
2022/08/12 14:51:00;;;;;;;;;;;30.90;29.90;;;;;;5081099;28;19924;-70
2022/08/12 14:53:30;;;;;;;;;;;30.90;29.40;;;;;;5082608;28;19931;-71
2022/08/12 14:55:57;;;;;;;;;;;31.00;29.20;;;;;;5081824;28;19978;-70
2022/08/12 14:58:24;;;;;;;;;;;31.10;29.40;;;;;;5087004;28;19924;-71
2022/08/12 15:03:36;;;;;;;;;;;31.20;29.60;;;;;;5080390;28;20129;-70
2022/08/12 15:06:04;;;;;;;;;;;31.20;29.80;;;;;;5077386;28;19924;-72
2022/08/12 15:08:32;;;;;;;;;;;31.30;29.70;;;;;;5083908;28;19928;-71
2022/08/12 15:11:01;;;;;;;;;;;31.30;29.90;;;;;;5077687;28;20305;-70
2022/08/12 15:13:30;;;;;;;;;;;31.30;30.20;;;;;;5082618;28;19932;-71
2022/08/12 15:15:57;;;;;;;;;;;31.30;30.60;;;;;;5076757;28;19924;-70
2022/08/12 15:18:24;;;;;;;;;;;31.30;29.70;;;;;;5087052;28;19971;-70
2022/08/12 15:20:53;;;;;;;;;;;31.30;29.90;;;;;;5077699;28;19932;-70
2022/08/12 15:23:21;;;;;;;;;;;31.40;30.50;;;;;;5078684;28;19934;-70
2022/08/12 15:25:49;;;;;;;;;;;31.40;30.60;;;;;;5073840;28;19931;-70
2022/08/12 15:28:16;;;;;;;;;;;31.40;30.70;;;;;;5081314;28;19973;-70
2022/08/12 15:30:43;;;;;;;;;;;31.40;29.90;;;;;;5083081;28;19932;-71
2022/08/12 15:33:11;;;;;;;;;;;31.50;31.30;;;;;;5084614;28;19928;-72
2022/08/12 15:35:38;;;;;;;;;;;31.50;30.00;;;;;;5076788;28;19959;-70
2022/08/12 15:38:07;;;;;;;;;;;31.50;29.60;;;;;;5081236;28;19928;-70
2022/08/12 15:40:34;;;;;;;;;;;31.40;31.40;;;;;;5076966;28;19931;-70
2022/08/12 15:43:02;;;;;;;;;;;31.50;29.90;;;;;;5083384;28;19947;-70
2022/08/12 15:45:29;;;;;;;;;;;31.50;30.00;;;;;;5080610;28;19936;-70
2022/08/12 15:47:56;;;;;;;;;;;31.50;30.00;;;;;;5076356;28;19924;-69
2022/08/12 15:50:24;;;;;;;;;;;31.50;29.40;;;;;;5078642;28;19924;-70
2022/08/12 15:52:50;;;;;;;;;;;31.50;30.00;;;;;;5077801;28;19940;-69
2022/08/12 15:55:19;;;;;;;;;;;31.40;29.40;;;;;;5079380;28;19924;-71
2022/08/12 15:57:49;;;;;;;;;;;31.50;30.00;;;;;;5077916;28;19938;-69
2022/08/12 16:00:16;;;;;;;;;;;31.40;30.20;;;;;;5082858;28;19924;-69
2022/08/12 16:02:43;;;;;;;;;;;31.40;29.80;;;;;;5084055;28;19931;-72
2022/08/12 16:05:10;;;;;;;;;;;31.40;28.80;;;;;;5087362;28;20299;-69
2022/08/12 16:07:36;;;;;;;;;;;31.40;29.30;;;;;;5085362;28;19932;-69
2022/08/12 16:10:03;;;;;;;;;;;31.40;29.70;;;;;;5085270;28;19924;-70
2022/08/12 16:12:31;;;;;;;;;;;31.30;29.70;;;;;;5081222;28;19977;-71
2022/08/12 16:14:58;;;;;;;;;;;31.30;29.00;;;;;;5079364;28;20422;-70
2022/08/12 16:17:25;;;;;;;;;;;31.30;28.90;;;;;;5088568;28;19924;-70